Terminal Aerodrome Forecast
Issued by NWS

Home | Current Version | Previous Version | Graphics & Text | Print | Product List | Glossary On
Versions: 1 2 3 4 5 6 7 8 9 10 11 12 13
000
FTUS45 KGGW 250522 AAB
TAFGDV
TAF AMD
KGDV 250522Z 2505/2606 01007KT 5SM -SHRA SCT030 BKN070
      TEMPO 2511/2514 3SM SHRA OVC020
     FM252100 35011KT P6SM VCSH BKN060
     FM252300 33009KT P6SM SCT120
      AMD LTD TO CLD VIS AND WIND=

USA.gov is the U.S. government's official web portal to all federal, state and local government web resources and services.